sensor_id;sensor_type;location;lat;lon;timestamp;P1;durP1;ratioP1;P2;durP2;ratioP2
4089;SDS011;2059;48.538;12.146;2022-10-20T00:02:30;17.63;;;15.73;;
4089;SDS011;2059;48.538;12.146;2022-10-20T00:07:32;17.53;;;15.73;;
4089;SDS011;2059;48.538;12.146;2022-10-20T00:12:35;19.60;;;16.37;;
4089;SDS011;2059;48.538;12.146;2022-10-20T00:17:37;21.33;;;16.40;;
4089;SDS011;2059;48.538;12.146;2022-10-20T00:22:39;20.17;;;16.80;;
4089;SDS011;2059;48.538;12.146;2022-10-20T00:27:42;20.00;;;17.00;;
4089;SDS011;2059;48.538;12.146;2022-10-20T00:32:45;22.30;;;17.03;;
4089;SDS011;2059;48.538;12.146;2022-10-20T00:37:47;22.27;;;17.60;;
4089;SDS011;2059;48.538;12.146;2022-10-20T00:42:51;19.80;;;17.00;;
4089;SDS011;2059;48.538;12.146;2022-10-20T00:47:53;22.17;;;17.27;;
4089;SDS011;2059;48.538;12.146;2022-10-20T00:52:58;19.20;;;17.30;;
4089;SDS011;2059;48.538;12.146;2022-10-20T00:58:02;18.37;;;16.33;;
4089;SDS011;2059;48.538;12.146;2022-10-20T01:03:05;20.67;;;17.57;;
4089;SDS011;2059;48.538;12.146;2022-10-20T01:08:12;20.20;;;17.50;;
4089;SDS011;2059;48.538;12.146;2022-10-20T01:13:17;20.13;;;16.43;;
4089;SDS011;2059;48.538;12.146;2022-10-20T01:18:23;20.87;;;16.17;;
4089;SDS011;2059;48.538;12.146;2022-10-20T01:23:40;17.90;;;16.03;;
4089;SDS011;2059;48.538;12.146;2022-10-20T01:28:55;17.13;;;14.97;;
4089;SDS011;2059;48.538;12.146;2022-10-20T01:34:02;18.03;;;14.80;;
4089;SDS011;2059;48.538;12.146;2022-10-20T01:39:09;16.93;;;15.17;;
4089;SDS011;2059;48.538;12.146;2022-10-20T01:44:17;17.30;;;15.70;;
4089;SDS011;2059;48.538;12.146;2022-10-20T01:49:21;18.20;;;14.43;;
4089;SDS011;2059;48.538;12.146;2022-10-20T01:54:25;17.03;;;13.23;;
4089;SDS011;2059;48.538;12.146;2022-10-20T01:59:31;19.70;;;16.23;;
4089;SDS011;2059;48.538;12.146;2022-10-20T02:04:56;17.47;;;13.20;;
4089;SDS011;2059;48.538;12.146;2022-10-20T02:10:16;19.33;;;16.50;;
4089;SDS011;2059;48.538;12.146;2022-10-20T02:15:22;17.50;;;15.70;;
4089;SDS011;2059;48.538;12.146;2022-10-20T02:20:26;16.77;;;15.20;;
4089;SDS011;2059;48.538;12.146;2022-10-20T02:25:29;16.83;;;15.23;;
4089;SDS011;2059;48.538;12.146;2022-10-20T02:30:33;21.60;;;15.63;;
4089;SDS011;2059;48.538;12.146;2022-10-20T02:35:36;15.63;;;14.20;;
4089;SDS011;2059;48.538;12.146;2022-10-20T02:40:42;15.97;;;14.67;;
4089;SDS011;2059;48.538;12.146;2022-10-20T02:45:45;19.37;;;13.57;;
4089;SDS011;2059;48.538;12.146;2022-10-20T02:50:47;16.43;;;14.83;;
4089;SDS011;2059;48.538;12.146;2022-10-20T02:55:48;15.67;;;14.27;;
4089;SDS011;2059;48.538;12.146;2022-10-20T03:00:52;15.40;;;14.00;;
4089;SDS011;2059;48.538;12.146;2022-10-20T03:05:53;16.30;;;14.63;;
4089;SDS011;2059;48.538;12.146;2022-10-20T03:10:55;19.80;;;11.97;;
4089;SDS011;2059;48.538;12.146;2022-10-20T03:15:59;14.50;;;10.97;;
4089;SDS011;2059;48.538;12.146;2022-10-20T03:21:01;15.30;;;12.10;;
4089;SDS011;2059;48.538;12.146;2022-10-20T03:26:03;13.10;;;11.63;;
4089;SDS011;2059;48.538;12.146;2022-10-20T03:31:08;13.40;;;11.10;;
4089;SDS011;2059;48.538;12.146;2022-10-20T03:36:10;11.90;;;10.70;;
4089;SDS011;2059;48.538;12.146;2022-10-20T04:05:18;11.40;;;10.20;;
4089;SDS011;2059;48.538;12.146;2022-10-20T04:10:21;11.27;;;10.10;;
4089;SDS011;2059;48.538;12.146;2022-10-20T04:15:23;10.70;;;9.70;;
4089;SDS011;2059;48.538;12.146;2022-10-20T04:20:26;13.60;;;11.00;;
4089;SDS011;2059;48.538;12.146;2022-10-20T04:25:28;11.17;;;10.00;;
4089;SDS011;2059;48.538;12.146;2022-10-20T04:30:30;11.77;;;10.67;;
4089;SDS011;2059;48.538;12.146;2022-10-20T04:35:33;10.30;;;9.30;;
4089;SDS011;2059;48.538;12.146;2022-10-20T04:40:35;13.30;;;10.67;;
4089;SDS011;2059;48.538;12.146;2022-10-20T04:45:36;11.47;;;10.27;;
4089;SDS011;2059;48.538;12.146;2022-10-20T04:50:40;12.20;;;10.90;;
4089;SDS011;2059;48.538;12.146;2022-10-20T04:55:41;11.07;;;9.93;;
4089;SDS011;2059;48.538;12.146;2022-10-20T05:00:43;11.27;;;9.90;;
4089;SDS011;2059;48.538;12.146;2022-10-20T05:05:46;13.17;;;9.80;;
4089;SDS011;2059;48.538;12.146;2022-10-20T05:10:48;11.63;;;10.53;;
4089;SDS011;2059;48.538;12.146;2022-10-20T05:15:50;13.23;;;10.30;;
4089;SDS011;2059;48.538;12.146;2022-10-20T05:20:54;14.50;;;10.13;;
4089;SDS011;2059;48.538;12.146;2022-10-20T05:25:56;12.07;;;10.77;;
4089;SDS011;2059;48.538;12.146;2022-10-20T05:30:59;12.33;;;10.33;;
4089;SDS011;2059;48.538;12.146;2022-10-20T05:36:07;11.07;;;9.90;;
4089;SDS011;2059;48.538;12.146;2022-10-20T05:41:10;11.87;;;9.90;;
4089;SDS011;2059;48.538;12.146;2022-10-20T05:46:13;11.50;;;10.03;;
4089;SDS011;2059;48.538;12.146;2022-10-20T05:51:18;12.30;;;10.07;;
4089;SDS011;2059;48.538;12.146;2022-10-20T05:56:21;14.30;;;12.90;;
4089;SDS011;2059;48.538;12.146;2022-10-20T06:01:23;13.43;;;12.20;;
4089;SDS011;2059;48.538;12.146;2022-10-20T06:06:29;14.57;;;13.03;;
4089;SDS011;2059;48.538;12.146;2022-10-20T06:11:31;18.13;;;12.40;;
4089;SDS011;2059;48.538;12.146;2022-10-20T06:16:33;12.63;;;11.43;;
4089;SDS011;2059;48.538;12.146;2022-10-20T06:21:37;14.03;;;12.50;;
4089;SDS011;2059;48.538;12.146;2022-10-20T06:26:39;13.30;;;12.00;;
4089;SDS011;2059;48.538;12.146;2022-10-20T06:31:41;12.07;;;10.77;;
4089;SDS011;2059;48.538;12.146;2022-10-20T06:36:46;11.93;;;10.80;;
4089;SDS011;2059;48.538;12.146;2022-10-20T06:41:49;12.17;;;11.13;;
4089;SDS011;2059;48.538;12.146;2022-10-20T06:46:52;11.90;;;10.77;;
4089;SDS011;2059;48.538;12.146;2022-10-20T06:51:55;11.73;;;10.73;;
4089;SDS011;2059;48.538;12.146;2022-10-20T06:56:57;14.67;;;11.57;;
4089;SDS011;2059;48.538;12.146;2022-10-20T07:01:59;12.47;;;11.43;;
4089;SDS011;2059;48.538;12.146;2022-10-20T07:07:03;12.30;;;11.10;;
4089;SDS011;2059;48.538;12.146;2022-10-20T07:12:04;11.93;;;10.90;;
4089;SDS011;2059;48.538;12.146;2022-10-20T07:17:06;10.70;;;9.90;;
4089;SDS011;2059;48.538;12.146;2022-10-20T07:22:09;12.13;;;10.43;;
4089;SDS011;2059;48.538;12.146;2022-10-20T07:27:11;11.93;;;10.83;;
4089;SDS011;2059;48.538;12.146;2022-10-20T07:32:13;11.80;;;10.70;;
4089;SDS011;2059;48.538;12.146;2022-10-20T07:37:16;12.30;;;11.10;;
4089;SDS011;2059;48.538;12.146;2022-10-20T07:42:18;11.97;;;10.80;;
4089;SDS011;2059;48.538;12.146;2022-10-20T07:47:20;10.60;;;9.80;;
4089;SDS011;2059;48.538;12.146;2022-10-20T07:52:23;12.17;;;10.87;;
4089;SDS011;2059;48.538;12.146;2022-10-20T07:57:25;11.50;;;10.67;;
4089;SDS011;2059;48.538;12.146;2022-10-20T08:02:26;11.90;;;10.90;;
4089;SDS011;2059;48.538;12.146;2022-10-20T08:07:30;10.77;;;9.90;;
4089;SDS011;2059;48.538;12.146;2022-10-20T08:12:32;11.83;;;10.73;;
4089;SDS011;2059;48.538;12.146;2022-10-20T08:17:33;10.77;;;9.87;;
4089;SDS011;2059;48.538;12.146;2022-10-20T08:22:37;10.80;;;9.90;;
4089;SDS011;2059;48.538;12.146;2022-10-20T08:27:38;11.93;;;10.23;;
4089;SDS011;2059;48.538;12.146;2022-10-20T08:32:40;10.87;;;10.07;;
4089;SDS011;2059;48.538;12.146;2022-10-20T08:37:43;10.70;;;9.80;;
4089;SDS011;2059;48.538;12.146;2022-10-20T08:42:46;10.03;;;9.23;;
4089;SDS011;2059;48.538;12.146;2022-10-20T08:47:49;11.00;;;9.60;;
4089;SDS011;2059;48.538;12.146;2022-10-20T08:52:56;10.60;;;9.63;;
4089;SDS011;2059;48.538;12.146;2022-10-20T08:58:01;10.60;;;9.23;;
4089;SDS011;2059;48.538;12.146;2022-10-20T09:03:09;9.63;;;8.87;;
4089;SDS011;2059;48.538;12.146;2022-10-20T09:08:17;10.47;;;9.17;;
4089;SDS011;2059;48.538;12.146;2022-10-20T09:13:22;9.87;;;8.97;;
4089;SDS011;2059;48.538;12.146;2022-10-20T09:18:25;9.67;;;8.83;;
4089;SDS011;2059;48.538;12.146;2022-10-20T09:23:30;10.13;;;9.30;;
4089;SDS011;2059;48.538;12.146;2022-10-20T09:28:37;8.90;;;8.30;;
4089;SDS011;2059;48.538;12.146;2022-10-20T09:33:39;8.93;;;8.33;;
4089;SDS011;2059;48.538;12.146;2022-10-20T09:38:42;9.70;;;8.37;;
4089;SDS011;2059;48.538;12.146;2022-10-20T09:43:47;10.47;;;9.53;;
4089;SDS011;2059;48.538;12.146;2022-10-20T09:48:52;9.33;;;8.63;;
4089;SDS011;2059;48.538;12.146;2022-10-20T09:53:57;8.30;;;7.60;;
4089;SDS011;2059;48.538;12.146;2022-10-20T09:59:03;11.97;;;8.87;;
4089;SDS011;2059;48.538;12.146;2022-10-20T10:04:10;7.37;;;6.30;;
4089;SDS011;2059;48.538;12.146;2022-10-20T10:09:33;10.20;;;9.40;;
4089;SDS011;2059;48.538;12.146;2022-10-20T10:14:37;10.17;;;9.47;;
4089;SDS011;2059;48.538;12.146;2022-10-20T10:19:51;9.40;;;8.60;;
4089;SDS011;2059;48.538;12.146;2022-10-20T10:24:54;7.57;;;6.37;;
4089;SDS011;2059;48.538;12.146;2022-10-20T10:35:26;10.50;;;9.70;;
4089;SDS011;2059;48.538;12.146;2022-10-20T10:40:34;10.97;;;9.97;;
4089;SDS011;2059;48.538;12.146;2022-10-20T10:45:46;9.97;;;9.37;;
4089;SDS011;2059;48.538;12.146;2022-10-20T10:50:53;10.57;;;9.77;;
4089;SDS011;2059;48.538;12.146;2022-10-20T10:56:02;7.07;;;6.10;;
4089;SDS011;2059;48.538;12.146;2022-10-20T11:01:13;7.47;;;6.87;;
4089;SDS011;2059;48.538;12.146;2022-10-20T11:06:25;10.40;;;9.60;;
4089;SDS011;2059;48.538;12.146;2022-10-20T11:11:42;9.13;;;8.43;;
4089;SDS011;2059;48.538;12.146;2022-10-20T11:16:56;11.00;;;10.00;;
4089;SDS011;2059;48.538;12.146;2022-10-20T11:22:10;7.90;;;7.30;;
4089;SDS011;2059;48.538;12.146;2022-10-20T11:27:23;9.63;;;8.90;;
4089;SDS011;2059;48.538;12.146;2022-10-20T11:32:27;9.87;;;8.73;;
4089;SDS011;2059;48.538;12.146;2022-10-20T11:37:36;9.10;;;8.50;;
4089;SDS011;2059;48.538;12.146;2022-10-20T11:42:43;9.77;;;8.97;;
4089;SDS011;2059;48.538;12.146;2022-10-20T11:47:53;10.00;;;9.20;;
4089;SDS011;2059;48.538;12.146;2022-10-20T11:53:10;10.10;;;9.20;;
4089;SDS011;2059;48.538;12.146;2022-10-20T11:58:28;9.57;;;8.80;;
4089;SDS011;2059;48.538;12.146;2022-10-20T12:03:46;9.80;;;9.10;;
4089;SDS011;2059;48.538;12.146;2022-10-20T12:09:20;10.13;;;9.40;;
4089;SDS011;2059;48.538;12.146;2022-10-20T12:14:42;10.30;;;9.40;;
4089;SDS011;2059;48.538;12.146;2022-10-20T12:19:48;10.80;;;9.90;;
4089;SDS011;2059;48.538;12.146;2022-10-20T12:30:41;10.80;;;9.70;;
4089;SDS011;2059;48.538;12.146;2022-10-20T12:41:22;10.43;;;9.70;;
4089;SDS011;2059;48.538;12.146;2022-10-20T12:46:28;10.90;;;10.10;;
4089;SDS011;2059;48.538;12.146;2022-10-20T12:51:33;11.00;;;10.30;;
4089;SDS011;2059;48.538;12.146;2022-10-20T12:56:39;12.37;;;11.30;;
4089;SDS011;2059;48.538;12.146;2022-10-20T13:18:37;14.00;;;10.60;;
4089;SDS011;2059;48.538;12.146;2022-10-20T13:23:45;10.60;;;9.80;;
4089;SDS011;2059;48.538;12.146;2022-10-20T13:28:51;11.60;;;10.53;;
4089;SDS011;2059;48.538;12.146;2022-10-20T13:33:55;11.80;;;10.90;;
4089;SDS011;2059;48.538;12.146;2022-10-20T13:39:05;12.30;;;9.80;;
4089;SDS011;2059;48.538;12.146;2022-10-20T13:44:19;10.83;;;10.13;;
4089;SDS011;2059;48.538;12.146;2022-10-20T13:49:33;8.07;;;7.40;;
4089;SDS011;2059;48.538;12.146;2022-10-20T13:54:48;7.20;;;6.70;;
4089;SDS011;2059;48.538;12.146;2022-10-20T13:59:56;7.37;;;6.70;;
4089;SDS011;2059;48.538;12.146;2022-10-20T14:05:00;7.13;;;6.60;;
4089;SDS011;2059;48.538;12.146;2022-10-20T14:10:04;7.23;;;6.53;;
4089;SDS011;2059;48.538;12.146;2022-10-20T14:15:10;7.93;;;7.10;;
4089;SDS011;2059;48.538;12.146;2022-10-20T14:20:17;9.33;;;7.60;;
4089;SDS011;2059;48.538;12.146;2022-10-20T14:25:20;7.13;;;6.63;;
4089;SDS011;2059;48.538;12.146;2022-10-20T14:30:24;8.30;;;7.50;;
4089;SDS011;2059;48.538;12.146;2022-10-20T14:35:28;6.97;;;6.43;;
4089;SDS011;2059;48.538;12.146;2022-10-20T14:40:33;7.87;;;7.17;;
4089;SDS011;2059;48.538;12.146;2022-10-20T14:45:38;8.13;;;7.53;;
4089;SDS011;2059;48.538;12.146;2022-10-20T14:50:39;7.30;;;6.70;;
4089;SDS011;2059;48.538;12.146;2022-10-20T14:55:41;8.43;;;7.73;;
4089;SDS011;2059;48.538;12.146;2022-10-20T15:00:45;8.23;;;7.40;;
4089;SDS011;2059;48.538;12.146;2022-10-20T15:05:48;8.80;;;8.10;;
4089;SDS011;2059;48.538;12.146;2022-10-20T15:10:52;7.73;;;7.20;;
4089;SDS011;2059;48.538;12.146;2022-10-20T15:15:56;8.67;;;8.10;;
4089;SDS011;2059;48.538;12.146;2022-10-20T15:20:59;8.77;;;7.87;;
4089;SDS011;2059;48.538;12.146;2022-10-20T15:26:02;8.40;;;7.70;;
4089;SDS011;2059;48.538;12.146;2022-10-20T15:31:18;7.30;;;6.70;;
4089;SDS011;2059;48.538;12.146;2022-10-20T15:36:23;7.77;;;7.17;;
4089;SDS011;2059;48.538;12.146;2022-10-20T15:46:32;9.30;;;8.43;;
4089;SDS011;2059;48.538;12.146;2022-10-20T15:51:34;7.83;;;7.27;;
4089;SDS011;2059;48.538;12.146;2022-10-20T15:56:39;10.40;;;7.10;;
4089;SDS011;2059;48.538;12.146;2022-10-20T16:01:42;8.60;;;7.90;;
4089;SDS011;2059;48.538;12.146;2022-10-20T16:06:44;9.53;;;8.50;;
4089;SDS011;2059;48.538;12.146;2022-10-20T16:11:46;9.03;;;8.30;;
4089;SDS011;2059;48.538;12.146;2022-10-20T16:16:49;8.90;;;8.10;;
4089;SDS011;2059;48.538;12.146;2022-10-20T16:21:51;11.10;;;8.57;;
4089;SDS011;2059;48.538;12.146;2022-10-20T16:26:52;7.80;;;7.20;;
4089;SDS011;2059;48.538;12.146;2022-10-20T16:31:56;16.67;;;9.70;;
4089;SDS011;2059;48.538;12.146;2022-10-20T16:36:58;9.00;;;8.13;;
4089;SDS011;2059;48.538;12.146;2022-10-20T16:41:59;7.80;;;7.00;;
4089;SDS011;2059;48.538;12.146;2022-10-20T16:47:03;9.90;;;8.97;;
4089;SDS011;2059;48.538;12.146;2022-10-20T16:52:05;10.53;;;8.20;;
4089;SDS011;2059;48.538;12.146;2022-10-20T16:57:07;7.77;;;7.07;;
4089;SDS011;2059;48.538;12.146;2022-10-20T17:02:11;11.93;;;10.90;;
4089;SDS011;2059;48.538;12.146;2022-10-20T17:07:13;9.60;;;8.70;;
4089;SDS011;2059;48.538;12.146;2022-10-20T17:12:15;10.00;;;8.77;;
4089;SDS011;2059;48.538;12.146;2022-10-20T17:17:18;9.00;;;8.20;;
4089;SDS011;2059;48.538;12.146;2022-10-20T17:22:20;10.30;;;9.30;;
4089;SDS011;2059;48.538;12.146;2022-10-20T17:27:22;11.57;;;10.57;;
4089;SDS011;2059;48.538;12.146;2022-10-20T17:32:25;9.03;;;8.20;;
4089;SDS011;2059;48.538;12.146;2022-10-20T17:37:27;13.40;;;11.00;;
4089;SDS011;2059;48.538;12.146;2022-10-20T17:42:30;9.50;;;8.70;;
4089;SDS011;2059;48.538;12.146;2022-10-20T17:47:34;10.60;;;9.70;;
4089;SDS011;2059;48.538;12.146;2022-10-20T17:52:36;9.90;;;9.00;;
4089;SDS011;2059;48.538;12.146;2022-10-20T17:57:38;9.83;;;9.00;;
4089;SDS011;2059;48.538;12.146;2022-10-20T18:02:45;10.13;;;8.90;;
4089;SDS011;2059;48.538;12.146;2022-10-20T18:07:48;9.50;;;8.80;;
4089;SDS011;2059;48.538;12.146;2022-10-20T18:12:49;9.43;;;8.53;;
4089;SDS011;2059;48.538;12.146;2022-10-20T18:17:53;10.47;;;9.40;;
4089;SDS011;2059;48.538;12.146;2022-10-20T18:22:54;11.20;;;10.10;;
4089;SDS011;2059;48.538;12.146;2022-10-20T18:27:57;11.33;;;10.13;;
4089;SDS011;2059;48.538;12.146;2022-10-20T18:33:00;10.93;;;10.03;;
4089;SDS011;2059;48.538;12.146;2022-10-20T18:38:02;11.23;;;10.07;;
4089;SDS011;2059;48.538;12.146;2022-10-20T18:43:04;11.30;;;10.30;;
4089;SDS011;2059;48.538;12.146;2022-10-20T18:48:07;14.63;;;13.13;;
4089;SDS011;2059;48.538;12.146;2022-10-20T18:53:09;13.13;;;11.83;;
4089;SDS011;2059;48.538;12.146;2022-10-20T18:58:11;16.10;;;13.27;;
4089;SDS011;2059;48.538;12.146;2022-10-20T19:03:14;11.13;;;10.03;;
4089;SDS011;2059;48.538;12.146;2022-10-20T19:08:16;12.00;;;10.20;;
4089;SDS011;2059;48.538;12.146;2022-10-20T19:13:17;9.30;;;8.40;;
4089;SDS011;2059;48.538;12.146;2022-10-20T19:18:21;11.23;;;8.93;;
4089;SDS011;2059;48.538;12.146;2022-10-20T19:23:23;10.00;;;8.90;;
4089;SDS011;2059;48.538;12.146;2022-10-20T19:28:25;10.17;;;9.17;;
4089;SDS011;2059;48.538;12.146;2022-10-20T19:33:28;16.47;;;11.13;;
4089;SDS011;2059;48.538;12.146;2022-10-20T19:38:30;10.60;;;9.60;;
4089;SDS011;2059;48.538;12.146;2022-10-20T19:43:32;11.97;;;10.87;;
4089;SDS011;2059;48.538;12.146;2022-10-20T19:48:35;11.07;;;10.13;;
4089;SDS011;2059;48.538;12.146;2022-10-20T19:53:37;13.80;;;12.40;;
4089;SDS011;2059;48.538;12.146;2022-10-20T19:58:39;9.83;;;8.93;;
4089;SDS011;2059;48.538;12.146;2022-10-20T20:03:43;10.07;;;9.10;;
4089;SDS011;2059;48.538;12.146;2022-10-20T20:08:46;12.00;;;9.97;;
4089;SDS011;2059;48.538;12.146;2022-10-20T20:13:50;20.40;;;11.73;;
4089;SDS011;2059;48.538;12.146;2022-10-20T20:18:53;11.70;;;9.77;;
4089;SDS011;2059;48.538;12.146;2022-10-20T20:23:56;10.40;;;9.50;;
4089;SDS011;2059;48.538;12.146;2022-10-20T20:28:59;16.33;;;11.33;;
4089;SDS011;2059;48.538;12.146;2022-10-20T20:34:03;12.67;;;9.80;;
4089;SDS011;2059;48.538;12.146;2022-10-20T20:39:04;10.47;;;9.47;;
4089;SDS011;2059;48.538;12.146;2022-10-20T20:44:07;13.03;;;11.93;;
4089;SDS011;2059;48.538;12.146;2022-10-20T20:49:10;10.50;;;9.50;;
4089;SDS011;2059;48.538;12.146;2022-10-20T20:54:12;11.27;;;10.27;;
4089;SDS011;2059;48.538;12.146;2022-10-20T20:59:14;12.20;;;11.10;;
4089;SDS011;2059;48.538;12.146;2022-10-20T21:04:17;11.60;;;10.60;;
4089;SDS011;2059;48.538;12.146;2022-10-20T21:09:20;11.90;;;10.30;;
4089;SDS011;2059;48.538;12.146;2022-10-20T21:14:22;15.00;;;11.03;;
4089;SDS011;2059;48.538;12.146;2022-10-20T21:19:25;12.17;;;10.93;;
4089;SDS011;2059;48.538;12.146;2022-10-20T21:24:27;11.10;;;10.00;;
4089;SDS011;2059;48.538;12.146;2022-10-20T21:29:29;12.37;;;11.17;;
4089;SDS011;2059;48.538;12.146;2022-10-20T21:34:32;12.03;;;10.83;;
4089;SDS011;2059;48.538;12.146;2022-10-20T21:39:34;11.40;;;10.30;;
4089;SDS011;2059;48.538;12.146;2022-10-20T21:44:35;12.33;;;11.33;;
4089;SDS011;2059;48.538;12.146;2022-10-20T21:49:39;17.10;;;11.17;;
4089;SDS011;2059;48.538;12.146;2022-10-20T21:54:40;12.73;;;11.50;;
4089;SDS011;2059;48.538;12.146;2022-10-20T21:59:42;17.67;;;11.20;;
4089;SDS011;2059;48.538;12.146;2022-10-20T22:04:50;13.70;;;10.60;;
4089;SDS011;2059;48.538;12.146;2022-10-20T22:09:52;13.07;;;11.70;;
4089;SDS011;2059;48.538;12.146;2022-10-20T22:14:54;14.77;;;13.23;;
4089;SDS011;2059;48.538;12.146;2022-10-20T22:19:57;13.30;;;11.90;;
4089;SDS011;2059;48.538;12.146;2022-10-20T22:24:59;15.10;;;13.23;;
4089;SDS011;2059;48.538;12.146;2022-10-20T22:30:01;13.20;;;11.80;;
4089;SDS011;2059;48.538;12.146;2022-10-20T22:35:05;15.13;;;12.40;;
4089;SDS011;2059;48.538;12.146;2022-10-20T22:40:08;13.27;;;12.00;;
4089;SDS011;2059;48.538;12.146;2022-10-20T22:45:10;13.47;;;12.10;;
4089;SDS011;2059;48.538;12.146;2022-10-20T22:50:13;12.83;;;11.53;;
4089;SDS011;2059;48.538;12.146;2022-10-20T22:55:15;15.37;;;13.73;;
4089;SDS011;2059;48.538;12.146;2022-10-20T23:00:18;13.73;;;12.53;;
4089;SDS011;2059;48.538;12.146;2022-10-20T23:05:21;15.57;;;13.67;;
4089;SDS011;2059;48.538;12.146;2022-10-20T23:10:23;14.37;;;13.07;;
4089;SDS011;2059;48.538;12.146;2022-10-20T23:15:25;15.03;;;13.63;;
4089;SDS011;2059;48.538;12.146;2022-10-20T23:20:28;15.07;;;13.77;;
4089;SDS011;2059;48.538;12.146;2022-10-20T23:25:30;14.20;;;13.00;;
4089;SDS011;2059;48.538;12.146;2022-10-20T23:30:32;15.40;;;13.80;;
4089;SDS011;2059;48.538;12.146;2022-10-20T23:35:35;14.10;;;12.80;;
4089;SDS011;2059;48.538;12.146;2022-10-20T23:40:38;14.40;;;12.97;;
4089;SDS011;2059;48.538;12.146;2022-10-20T23:45:41;18.00;;;12.80;;
4089;SDS011;2059;48.538;12.146;2022-10-20T23:50:44;11.70;;;10.50;;
4089;SDS011;2059;48.538;12.146;2022-10-20T23:55:46;11.70;;;10.50;;
